createdAt,value
2018-03-06T00:00:50.880Z,932.28
2018-03-06T00:01:50.859Z,932.26
2018-03-06T00:02:50.841Z,932.27
2018-03-06T00:03:50.823Z,932.26
2018-03-06T00:04:50.805Z,932.25
2018-03-06T00:05:50.785Z,932.24
2018-03-06T00:06:50.766Z,932.23
2018-03-06T00:07:50.746Z,932.22
2018-03-06T00:08:50.726Z,932.16
2018-03-06T00:09:50.709Z,932.16
2018-03-06T00:10:50.688Z,932.15
2018-03-06T00:11:50.672Z,932.15
2018-03-06T00:12:50.650Z,932.13
2018-03-06T00:13:50.631Z,932.08
2018-03-06T00:14:50.611Z,932.05
2018-03-06T00:15:50.591Z,932.07
2018-03-06T00:16:50.605Z,932.06
2018-03-06T00:17:50.553Z,932.08
2018-03-06T00:18:50.535Z,932.03
2018-03-06T00:19:50.516Z,932.04
2018-03-06T00:20:50.497Z,932.07
2018-03-06T00:21:50.477Z,932
2018-03-06T00:22:50.461Z,932.06
2018-03-06T00:23:50.438Z,932.05
2018-03-06T00:24:50.421Z,932.08
2018-03-06T00:25:50.404Z,932.07
2018-03-06T00:26:50.380Z,932.08
2018-03-06T00:27:50.361Z,932.04
2018-03-06T00:28:50.343Z,932.07
2018-03-06T00:29:50.325Z,932.06
2018-03-06T00:30:50.305Z,932.09
2018-03-06T00:31:50.286Z,932.04
2018-03-06T00:32:50.267Z,932.12
2018-03-06T00:33:50.250Z,932.07
2018-03-06T00:34:50.229Z,932.12
2018-03-06T00:35:50.210Z,932.05
2018-03-06T00:36:50.190Z,932.08
2018-03-06T00:37:50.172Z,932.03
2018-03-06T00:38:50.151Z,932.01
2018-03-06T00:39:50.133Z,932.01
2018-03-06T00:40:50.112Z,931.97
2018-03-06T00:41:50.094Z,931.98
2018-03-06T00:42:50.074Z,931.97
2018-03-06T00:43:50.058Z,931.93
2018-03-06T00:44:50.038Z,931.96
2018-03-06T00:45:50.018Z,931.91
2018-03-06T00:46:50.000Z,931.87
2018-03-06T00:47:49.979Z,931.86
2018-03-06T00:48:49.961Z,931.85
2018-03-06T00:49:49.939Z,931.88
2018-03-06T00:50:49.921Z,931.81
2018-03-06T00:51:49.903Z,931.82
2018-03-06T00:52:49.880Z,931.79
2018-03-06T00:53:49.863Z,931.79
2018-03-06T00:54:49.849Z,931.79
2018-03-06T00:55:49.823Z,931.76
2018-03-06T00:56:49.805Z,931.73
2018-03-06T00:57:49.787Z,931.75
2018-03-06T00:58:49.766Z,931.72
2018-03-06T00:59:49.747Z,931.73
2018-03-06T01:00:49.729Z,931.73
2018-03-06T01:01:49.711Z,931.68
2018-03-06T01:02:49.691Z,931.65
2018-03-06T01:03:49.671Z,931.63
2018-03-06T01:04:49.652Z,931.62
2018-03-06T01:05:49.633Z,931.58
2018-03-06T01:06:49.613Z,931.58
2018-03-06T01:07:49.595Z,931.58
2018-03-06T01:08:49.574Z,931.56
2018-03-06T01:09:49.558Z,931.48
2018-03-06T01:10:49.536Z,931.53
2018-03-06T01:11:49.516Z,931.5
2018-03-06T01:12:49.499Z,931.51
2018-03-06T01:13:49.481Z,931.5
2018-03-06T01:14:49.460Z,931.47
2018-03-06T01:15:49.441Z,931.49
2018-03-06T01:16:49.423Z,931.43
2018-03-06T01:17:49.403Z,931.46
2018-03-06T01:18:49.383Z,931.48
2018-03-06T01:19:49.363Z,931.49
2018-03-06T01:20:49.345Z,931.44
2018-03-06T01:21:49.325Z,931.46
2018-03-06T01:22:49.308Z,931.44
2018-03-06T01:23:49.288Z,931.41
2018-03-06T01:24:49.270Z,931.43
2018-03-06T01:25:49.249Z,931.44
2018-03-06T01:26:49.232Z,931.45
2018-03-06T01:27:49.212Z,931.42
2018-03-06T01:28:49.192Z,931.36
2018-03-06T01:29:49.173Z,931.34
2018-03-06T01:30:49.154Z,931.38
2018-03-06T01:31:49.135Z,931.43
2018-03-06T01:32:49.116Z,931.4
2018-03-06T01:33:49.097Z,931.41
2018-03-06T01:34:49.078Z,931.38
2018-03-06T01:35:49.060Z,931.39
2018-03-06T01:36:49.040Z,931.37
2018-03-06T01:37:49.020Z,931.35
2018-03-06T01:38:49.001Z,931.42
2018-03-06T01:39:48.986Z,931.37
2018-03-06T01:40:48.963Z,931.38
2018-03-06T01:41:48.944Z,931.37
2018-03-06T01:42:48.925Z,931.36
2018-03-06T01:43:48.905Z,931.36
2018-03-06T01:44:48.886Z,931.36
2018-03-06T01:45:48.866Z,931.33
2018-03-06T01:46:48.849Z,931.33
2018-03-06T01:47:48.829Z,931.29
2018-03-06T01:48:48.811Z,931.24
2018-03-06T01:49:48.792Z,931.24
2018-03-06T01:50:48.772Z,931.3
2018-03-06T01:51:48.753Z,931.25
2018-03-06T01:52:48.733Z,931.29
2018-03-06T01:53:48.715Z,931.28
2018-03-06T01:54:48.696Z,931.23
2018-03-06T01:55:48.675Z,931.25
2018-03-06T01:56:48.658Z,931.25
2018-03-06T01:57:48.640Z,931.24
2018-03-06T01:58:48.619Z,931.2
2018-03-06T01:59:48.599Z,931.19
2018-03-06T02:00:48.580Z,931.13
2018-03-06T02:01:48.562Z,931.13
2018-03-06T02:02:48.541Z,931.09
2018-03-06T02:03:48.523Z,931.12
2018-03-06T02:04:48.505Z,931.08
2018-03-06T02:05:48.484Z,931.06
2018-03-06T02:06:48.465Z,931.08
2018-03-06T02:07:48.447Z,931.05
2018-03-06T02:08:48.428Z,931.04
2018-03-06T02:09:48.411Z,931.05
2018-03-06T02:10:48.389Z,931.05
2018-03-06T02:11:48.374Z,931.02
2018-03-06T02:12:48.349Z,930.99
2018-03-06T02:13:48.332Z,930.93
2018-03-06T02:14:48.312Z,930.94
2018-03-06T02:15:48.293Z,930.94
2018-03-06T02:16:48.273Z,930.94
2018-03-06T02:17:48.255Z,930.9
2018-03-06T02:18:48.235Z,930.95
2018-03-06T02:19:48.216Z,930.91
2018-03-06T02:20:48.195Z,930.86
2018-03-06T02:21:48.177Z,930.85
2018-03-06T02:22:48.158Z,930.83
2018-03-06T02:23:48.138Z,930.82
2018-03-06T02:24:48.119Z,930.85
2018-03-06T02:25:48.100Z,930.81
2018-03-06T02:26:48.085Z,930.8
2018-03-06T02:27:48.061Z,930.8
2018-03-06T02:28:48.043Z,930.79
2018-03-06T02:29:48.024Z,930.77
2018-03-06T02:30:48.005Z,930.72
2018-03-06T02:31:47.984Z,930.73
2018-03-06T02:32:47.966Z,930.71
2018-03-06T02:33:47.946Z,930.67
2018-03-06T02:34:47.930Z,930.66
2018-03-06T02:35:47.914Z,930.69
2018-03-06T02:36:47.889Z,930.69
2018-03-06T02:37:47.870Z,930.62
2018-03-06T02:38:47.849Z,930.68
2018-03-06T02:39:47.831Z,930.65
2018-03-06T02:40:47.812Z,930.6
2018-03-06T02:41:47.792Z,930.59
2018-03-06T02:42:47.771Z,930.6
2018-03-06T02:43:47.752Z,930.58
2018-03-06T02:44:47.735Z,930.6
2018-03-06T02:45:47.714Z,930.57
2018-03-06T02:46:47.695Z,930.54
2018-03-06T02:47:47.687Z,930.57
2018-03-06T02:48:47.660Z,930.55
2018-03-06T02:49:47.638Z,930.55
2018-03-06T02:50:47.618Z,930.56
2018-03-06T02:51:47.598Z,930.54
2018-03-06T02:52:47.580Z,930.55
2018-03-06T02:53:47.559Z,930.57
2018-03-06T02:54:47.540Z,930.57
2018-03-06T02:55:47.521Z,930.6
2018-03-06T02:56:47.501Z,930.6
2018-03-06T02:57:47.483Z,930.55
2018-03-06T02:58:47.464Z,930.56
2018-03-06T02:59:47.442Z,930.54
2018-03-06T03:00:47.425Z,930.55
2018-03-06T03:01:47.419Z,930.54
2018-03-06T03:02:47.385Z,930.49
2018-03-06T03:03:47.367Z,930.47
2018-03-06T03:04:47.346Z,930.4
2018-03-06T03:05:47.327Z,930.43
2018-03-06T03:06:47.309Z,930.42
2018-03-06T03:07:47.288Z,930.48
2018-03-06T03:08:47.270Z,930.47
2018-03-06T03:09:47.250Z,930.46
2018-03-06T03:10:47.231Z,930.47
2018-03-06T03:11:47.210Z,930.43
2018-03-06T03:12:47.192Z,930.44
2018-03-06T03:13:47.173Z,930.41
2018-03-06T03:14:47.151Z,930.42
2018-03-06T03:15:47.132Z,930.39
2018-03-06T03:16:47.112Z,930.37
2018-03-06T03:17:47.094Z,930.35
2018-03-06T03:18:47.074Z,930.35
2018-03-06T03:19:47.056Z,930.38
2018-03-06T03:20:47.035Z,930.36
2018-03-06T03:21:47.016Z,930.34
2018-03-06T03:22:46.996Z,930.33
2018-03-06T03:23:46.976Z,930.31
2018-03-06T03:24:46.957Z,930.31
2018-03-06T03:25:46.936Z,930.32
2018-03-06T03:26:46.919Z,930.28
2018-03-06T03:27:46.899Z,930.28
2018-03-06T03:28:46.880Z,930.28
2018-03-06T03:29:46.860Z,930.24
2018-03-06T03:30:46.841Z,930.25
2018-03-06T03:31:46.820Z,930.31
2018-03-06T03:32:46.802Z,930.29
2018-03-06T03:33:46.784Z,930.32
2018-03-06T03:34:46.761Z,930.32
2018-03-06T03:35:46.746Z,930.34
2018-03-06T03:36:46.722Z,930.36
2018-03-06T03:37:46.703Z,930.35
2018-03-06T03:38:46.685Z,930.37
2018-03-06T03:39:46.666Z,930.41
2018-03-06T03:40:46.643Z,930.36
2018-03-06T03:41:46.625Z,930.35
2018-03-06T03:42:46.607Z,930.4
2018-03-06T03:43:46.586Z,930.42
2018-03-06T03:44:46.569Z,930.38
2018-03-06T03:45:46.547Z,930.41
2018-03-06T03:46:46.528Z,930.34
2018-03-06T03:47:46.509Z,930.33
2018-03-06T03:48:46.488Z,930.29
2018-03-06T03:49:46.468Z,930.3
2018-03-06T03:50:46.452Z,930.26
2018-03-06T03:51:46.431Z,930.22
2018-03-06T03:52:46.410Z,930.29
2018-03-06T03:53:46.392Z,930.22
2018-03-06T03:54:46.372Z,930.2
2018-03-06T03:55:46.351Z,930.24
2018-03-06T03:56:46.331Z,930.27
2018-03-06T03:57:46.313Z,930.27
2018-03-06T03:58:46.294Z,930.26
2018-03-06T03:59:46.273Z,930.26
2018-03-06T04:00:46.254Z,930.29
2018-03-06T04:01:46.235Z,930.23
2018-03-06T04:02:46.214Z,930.22
2018-03-06T04:03:46.195Z,930.24
2018-03-06T04:04:46.179Z,930.26
2018-03-06T04:05:46.156Z,930.22
2018-03-06T04:06:46.137Z,930.25
2018-03-06T04:07:46.118Z,930.19
2018-03-06T04:08:46.098Z,930.24
2018-03-06T04:09:46.077Z,930.2
2018-03-06T04:10:46.063Z,930.2
2018-03-06T04:11:46.039Z,930.21
2018-03-06T04:12:46.019Z,930.17
2018-03-06T04:13:46.005Z,930.16
2018-03-06T04:14:45.980Z,930.21
2018-03-06T04:15:45.962Z,930.18
2018-03-06T04:16:45.942Z,930.16
2018-03-06T04:17:45.921Z,930.15
2018-03-06T04:18:45.901Z,930.17
2018-03-06T04:19:45.882Z,930.09
2018-03-06T04:20:45.862Z,930.09
2018-03-06T04:21:45.842Z,930.09
2018-03-06T04:22:45.824Z,930.07
2018-03-06T04:23:45.804Z,930.05
2018-03-06T04:24:45.785Z,930.14
2018-03-06T04:25:45.764Z,930.11
2018-03-06T04:26:45.746Z,930.1
2018-03-06T04:27:45.726Z,930.08
2018-03-06T04:28:45.706Z,930.06
2018-03-06T04:29:45.687Z,930.08
2018-03-06T04:30:45.667Z,930.08
2018-03-06T04:31:45.648Z,930.12
2018-03-06T04:32:45.628Z,930.07
2018-03-06T04:33:45.609Z,930.12
2018-03-06T04:34:45.589Z,930.09
2018-03-06T04:35:45.570Z,930.14
2018-03-06T04:36:45.551Z,930.05
2018-03-06T04:37:45.531Z,930.14
2018-03-06T04:38:45.512Z,930.07
2018-03-06T04:39:45.493Z,930.07
2018-03-06T04:40:45.473Z,930.06
2018-03-06T04:41:45.454Z,930.04
2018-03-06T04:42:45.433Z,930.01
2018-03-06T04:43:45.416Z,929.98
2018-03-06T04:44:45.396Z,930
2018-03-06T04:45:45.376Z,930.01
2018-03-06T04:46:45.355Z,930.03
2018-03-06T04:47:45.336Z,930.02
2018-03-06T04:48:45.318Z,930.04
2018-03-06T04:49:45.296Z,930.02
2018-03-06T04:50:45.276Z,930.02
2018-03-06T04:51:45.258Z,930.02
2018-03-06T04:52:45.240Z,930.04
2018-03-06T04:53:45.220Z,930.06
2018-03-06T04:54:45.199Z,930.01
2018-03-06T04:55:45.181Z,930.03
2018-03-06T04:56:45.161Z,929.99
2018-03-06T04:57:45.141Z,929.96
2018-03-06T04:58:45.122Z,929.95
2018-03-06T04:59:45.103Z,929.91
2018-03-06T05:00:45.182Z,929.95
2018-03-06T05:01:45.061Z,929.96
2018-03-06T05:02:45.044Z,929.92
2018-03-06T05:03:45.025Z,929.96
2018-03-06T05:04:45.005Z,929.92
2018-03-06T05:05:44.985Z,929.95
2018-03-06T05:06:44.965Z,929.92
2018-03-06T05:07:44.946Z,929.9
2018-03-06T05:08:44.927Z,929.9
2018-03-06T05:09:44.908Z,929.9
2018-03-06T05:10:44.887Z,929.92
2018-03-06T05:11:44.866Z,929.89
2018-03-06T05:12:44.848Z,929.88
2018-03-06T05:13:44.828Z,929.92
2018-03-06T05:14:44.809Z,929.91
2018-03-06T05:15:44.792Z,929.91
2018-03-06T05:16:44.770Z,929.89
2018-03-06T05:17:44.751Z,929.92
2018-03-06T05:18:44.732Z,929.87
2018-03-06T05:19:44.712Z,929.88
2018-03-06T05:20:44.693Z,929.88
2018-03-06T05:21:44.673Z,929.9
2018-03-06T05:22:44.653Z,929.9
2018-03-06T05:23:44.638Z,929.93
2018-03-06T05:24:44.614Z,929.89
2018-03-06T05:25:44.596Z,929.87
2018-03-06T05:26:44.574Z,929.88
2018-03-06T05:27:44.556Z,929.86
2018-03-06T05:28:44.536Z,929.87
2018-03-06T05:29:44.517Z,929.88
2018-03-06T05:30:44.499Z,929.84
2018-03-06T05:31:44.477Z,929.86
2018-03-06T05:32:44.458Z,929.86
2018-03-06T05:33:44.438Z,929.86
2018-03-06T05:34:44.420Z,929.84
2018-03-06T05:35:44.400Z,929.83
2018-03-06T05:36:44.380Z,929.85
2018-03-06T05:37:44.361Z,929.84
2018-03-06T05:38:44.341Z,929.86
2018-03-06T05:39:44.324Z,929.81
2018-03-06T05:40:44.302Z,929.81
2018-03-06T05:41:44.282Z,929.84
2018-03-06T05:42:44.264Z,929.82
2018-03-06T05:43:44.244Z,929.8
2018-03-06T05:44:44.223Z,929.8
2018-03-06T05:45:44.204Z,929.76
2018-03-06T05:46:44.185Z,929.77
2018-03-06T05:47:44.168Z,929.84
2018-03-06T05:48:44.145Z,929.82
2018-03-06T05:49:44.127Z,929.77
2018-03-06T05:50:44.108Z,929.82
2018-03-06T05:51:44.090Z,929.77
2018-03-06T05:52:44.071Z,929.75
2018-03-06T05:53:44.048Z,929.77
2018-03-06T05:54:44.029Z,929.78
2018-03-06T05:55:44.010Z,929.77
2018-03-06T05:56:43.989Z,929.78
2018-03-06T05:57:43.971Z,929.8
2018-03-06T05:58:43.953Z,929.78
2018-03-06T05:59:43.931Z,929.78
2018-03-06T06:00:43.912Z,929.8
2018-03-06T06:01:43.894Z,929.8
2018-03-06T06:02:43.875Z,929.8
2018-03-06T06:03:43.856Z,929.8
2018-03-06T06:04:43.835Z,929.8
2018-03-06T06:05:43.815Z,929.84
2018-03-06T06:06:43.797Z,929.85
2018-03-06T06:07:43.776Z,929.83
2018-03-06T06:08:43.756Z,929.81
2018-03-06T06:09:43.738Z,929.84
2018-03-06T06:10:43.715Z,929.83
2018-03-06T06:11:43.697Z,929.82
2018-03-06T06:12:43.678Z,929.81
2018-03-06T06:13:43.659Z,929.87
2018-03-06T06:14:43.640Z,929.86
2018-03-06T06:15:43.623Z,929.84
2018-03-06T06:16:43.602Z,929.84
2018-03-06T06:17:43.582Z,929.82
2018-03-06T06:18:43.562Z,929.81
2018-03-06T06:19:43.544Z,929.82
2018-03-06T06:20:43.524Z,929.73
2018-03-06T06:21:43.506Z,929.79
2018-03-06T06:22:43.485Z,929.76
2018-03-06T06:23:43.465Z,929.78
2018-03-06T06:24:43.446Z,929.78
2018-03-06T06:25:43.428Z,929.82
2018-03-06T06:26:43.406Z,929.8
2018-03-06T06:27:43.388Z,929.81
2018-03-06T06:28:43.369Z,929.79
2018-03-06T06:29:43.350Z,929.85
2018-03-06T06:30:43.330Z,929.85
2018-03-06T06:31:43.311Z,929.79
2018-03-06T06:32:43.294Z,929.79
2018-03-06T06:33:43.272Z,929.76
2018-03-06T06:34:43.254Z,929.82
2018-03-06T06:35:43.234Z,929.82
2018-03-06T06:36:43.213Z,929.85
2018-03-06T06:37:43.195Z,929.85
2018-03-06T06:38:43.176Z,929.83
2018-03-06T06:39:43.157Z,929.85
2018-03-06T06:40:43.139Z,929.83
2018-03-06T06:41:43.120Z,929.84
2018-03-06T06:42:43.141Z,929.87
2018-03-06T06:43:43.080Z,929.87
2018-03-06T06:44:43.062Z,929.83
2018-03-06T06:45:43.043Z,929.86
2018-03-06T06:46:43.025Z,929.9
2018-03-06T06:47:43.005Z,929.85
2018-03-06T06:48:42.985Z,929.86
2018-03-06T06:49:42.967Z,929.88
2018-03-06T06:50:42.946Z,929.84
2018-03-06T06:51:42.928Z,929.83
2018-03-06T06:52:42.909Z,929.83
2018-03-06T06:53:42.893Z,929.84
2018-03-06T06:54:42.870Z,929.82
2018-03-06T06:55:42.854Z,929.83
2018-03-06T06:56:42.837Z,929.79
2018-03-06T06:57:42.814Z,929.76
2018-03-06T06:58:42.796Z,929.77
2018-03-06T06:59:42.778Z,929.79
2018-03-06T07:00:42.758Z,929.79
2018-03-06T07:01:42.740Z,929.78
2018-03-06T07:02:42.722Z,929.73
2018-03-06T07:03:42.702Z,929.7
2018-03-06T07:04:42.684Z,929.72
2018-03-06T07:05:42.664Z,929.76
2018-03-06T07:06:42.646Z,929.8
2018-03-06T07:07:42.629Z,929.76
2018-03-06T07:08:42.607Z,929.74
2018-03-06T07:09:42.591Z,929.75
2018-03-06T07:10:42.572Z,929.77
2018-03-06T07:11:42.555Z,929.74
2018-03-06T07:12:42.535Z,929.72
2018-03-06T07:13:42.517Z,929.74
2018-03-06T07:14:42.497Z,929.78
2018-03-06T07:15:42.523Z,929.76
2018-03-06T07:16:42.460Z,929.74
2018-03-06T07:17:42.442Z,929.74
2018-03-06T07:18:42.425Z,929.78
2018-03-06T07:19:42.405Z,929.76
2018-03-06T07:20:42.388Z,929.77
2018-03-06T07:21:42.369Z,929.75
2018-03-06T07:22:42.351Z,929.75
2018-03-06T07:23:42.335Z,929.75
2018-03-06T07:24:42.313Z,929.79
2018-03-06T07:25:42.295Z,929.77
2018-03-06T07:26:42.277Z,929.74
2018-03-06T07:27:42.259Z,929.74
2018-03-06T07:28:42.239Z,929.71
2018-03-06T07:29:42.250Z,929.7
2018-03-06T07:30:42.208Z,929.74
2018-03-06T07:31:42.186Z,929.71
2018-03-06T07:32:42.167Z,929.72
2018-03-06T07:33:42.152Z,929.76
2018-03-06T07:34:42.131Z,929.67
2018-03-06T07:35:42.114Z,929.68
2018-03-06T07:36:42.097Z,929.71
2018-03-06T07:37:42.079Z,929.71
2018-03-06T07:38:42.059Z,929.68
2018-03-06T07:39:42.041Z,929.67
2018-03-06T07:40:42.024Z,929.66
2018-03-06T07:41:42.004Z,929.65
2018-03-06T07:42:41.986Z,929.67
2018-03-06T07:43:41.969Z,929.67
2018-03-06T07:44:41.951Z,929.67
2018-03-06T07:45:41.932Z,929.62
2018-03-06T07:46:41.915Z,929.66
2018-03-06T07:47:41.897Z,929.7
2018-03-06T07:48:41.881Z,929.68
2018-03-06T07:49:41.862Z,929.71
2018-03-06T07:50:41.846Z,929.7
2018-03-06T07:51:41.828Z,929.72
2018-03-06T07:52:41.808Z,929.71
2018-03-06T07:53:41.791Z,929.73
2018-03-06T07:54:41.774Z,929.72
2018-03-06T07:55:41.756Z,929.69
2018-03-06T07:56:41.744Z,929.66
2018-03-06T07:57:41.721Z,929.7
2018-03-06T07:58:41.704Z,929.67
2018-03-06T07:59:41.684Z,929.71
2018-03-06T08:00:41.671Z,929.7
2018-03-06T08:01:41.650Z,929.67
2018-03-06T08:02:41.632Z,929.66
2018-03-06T08:03:41.615Z,929.65
2018-03-06T08:04:41.598Z,929.68
2018-03-06T08:05:41.580Z,929.68
2018-03-06T08:06:41.563Z,929.74
2018-03-06T08:07:41.545Z,929.72
2018-03-06T08:08:41.529Z,929.71
2018-03-06T08:09:41.510Z,929.66
2018-03-06T08:10:41.492Z,929.67
2018-03-06T08:11:41.512Z,929.6
2018-03-06T08:12:41.458Z,929.62
2018-03-06T08:13:41.441Z,929.6
2018-03-06T08:14:41.423Z,929.57
2018-03-06T08:15:41.407Z,929.59
2018-03-06T08:16:41.389Z,929.58
2018-03-06T08:17:41.375Z,929.54
2018-03-06T08:18:41.353Z,929.56
2018-03-06T08:19:41.339Z,929.54
2018-03-06T08:20:41.321Z,929.58
2018-03-06T08:21:41.304Z,929.5
2018-03-06T08:22:41.291Z,929.51
2018-03-06T08:23:41.269Z,929.51
2018-03-06T08:24:41.253Z,929.52
2018-03-06T08:25:41.235Z,929.5
2018-03-06T08:26:41.219Z,929.48
2018-03-06T08:27:41.204Z,929.52
2018-03-06T08:28:41.186Z,929.49
2018-03-06T08:29:41.169Z,929.52
2018-03-06T08:30:41.152Z,929.53
2018-03-06T08:31:41.135Z,929.53
2018-03-06T08:32:41.117Z,929.51
2018-03-06T08:33:41.101Z,929.53
2018-03-06T08:34:41.085Z,929.52
2018-03-06T08:35:41.069Z,929.52
2018-03-06T08:36:41.051Z,929.56
2018-03-06T08:37:41.066Z,929.52
2018-03-06T08:38:41.018Z,929.51
2018-03-06T08:39:41.002Z,929.46
2018-03-06T08:40:40.984Z,929.43
2018-03-06T08:41:40.967Z,929.49
2018-03-06T08:42:40.953Z,929.5
2018-03-06T08:43:40.934Z,929.54
2018-03-06T08:44:40.918Z,929.49
2018-03-06T08:45:40.904Z,929.52
2018-03-06T08:46:40.884Z,929.58
2018-03-06T08:47:40.867Z,929.49
2018-03-06T08:48:40.855Z,929.56
2018-03-06T08:49:40.837Z,929.53
2018-03-06T08:50:40.819Z,929.57
2018-03-06T08:51:40.802Z,929.57
2018-03-06T08:52:40.787Z,929.53
2018-03-06T08:53:40.770Z,929.56
2018-03-06T08:54:40.753Z,929.57
2018-03-06T08:55:40.740Z,929.56
2018-03-06T08:56:40.720Z,929.59
2018-03-06T08:57:40.711Z,929.57
2018-03-06T08:58:40.686Z,929.57
2018-03-06T08:59:40.671Z,929.58
2018-03-06T09:00:40.655Z,929.58
2018-03-06T09:01:40.638Z,929.55
2018-03-06T09:02:40.622Z,929.59
2018-03-06T09:03:40.662Z,929.57
2018-03-06T09:04:40.589Z,929.61
2018-03-06T09:05:40.576Z,929.57
2018-03-06T09:06:40.557Z,929.55
2018-03-06T09:07:40.540Z,929.6
2018-03-06T09:08:40.529Z,929.59
2018-03-06T09:09:40.507Z,929.57
2018-03-06T09:10:40.492Z,929.58
2018-03-06T09:11:40.476Z,929.61
2018-03-06T09:12:40.460Z,929.57
2018-03-06T09:13:40.444Z,929.55
2018-03-06T09:14:40.428Z,929.59
2018-03-06T09:15:40.413Z,929.57
2018-03-06T09:16:40.395Z,929.6
2018-03-06T09:17:40.381Z,929.55
2018-03-06T09:18:40.365Z,929.55
2018-03-06T09:19:40.349Z,929.57
2018-03-06T09:20:40.333Z,929.59
2018-03-06T09:21:40.317Z,929.55
2018-03-06T09:22:40.299Z,929.57
2018-03-06T09:23:40.285Z,929.6
2018-03-06T09:24:40.273Z,929.57
2018-03-06T09:25:40.254Z,929.63
2018-03-06T09:26:40.238Z,929.56
2018-03-06T09:27:40.222Z,929.58
2018-03-06T09:28:40.212Z,929.6
2018-03-06T09:29:40.190Z,929.57
2018-03-06T09:30:40.174Z,929.6
2018-03-06T09:31:40.158Z,929.62
2018-03-06T09:32:40.142Z,929.61
2018-03-06T09:33:40.127Z,929.59
2018-03-06T09:34:40.111Z,929.56
2018-03-06T09:35:40.096Z,929.56
2018-03-06T09:36:40.080Z,929.6
2018-03-06T09:37:40.063Z,929.6
2018-03-06T09:38:40.049Z,929.56
2018-03-06T09:39:40.032Z,929.59
2018-03-06T09:40:40.017Z,929.57
2018-03-06T09:41:40.009Z,929.56
2018-03-06T09:42:39.986Z,929.58
2018-03-06T09:43:39.970Z,929.56
2018-03-06T09:44:39.955Z,929.56
2018-03-06T09:45:39.939Z,929.58
2018-03-06T09:46:39.924Z,929.57
2018-03-06T09:47:39.908Z,929.59
2018-03-06T09:48:39.896Z,929.56
2018-03-06T09:49:39.879Z,929.58
2018-03-06T09:50:39.867Z,929.56
2018-03-06T09:51:39.847Z,929.63
2018-03-06T09:52:39.832Z,929.59
2018-03-06T09:53:39.816Z,929.6
2018-03-06T09:54:39.801Z,929.57
2018-03-06T09:55:39.787Z,929.56
2018-03-06T09:56:39.769Z,929.55
2018-03-06T09:57:39.755Z,929.56
2018-03-06T09:58:39.740Z,929.57
2018-03-06T09:59:39.724Z,929.57
2018-03-06T10:00:39.709Z,929.55
2018-03-06T10:01:39.694Z,929.54
2018-03-06T10:02:39.679Z,929.51
2018-03-06T10:03:39.666Z,929.52
2018-03-06T10:04:39.649Z,929.5
2018-03-06T10:05:39.634Z,929.53
2018-03-06T10:06:39.619Z,929.5
2018-03-06T10:07:39.604Z,929.46
2018-03-06T10:08:39.589Z,929.52
2018-03-06T10:09:39.575Z,929.51
2018-03-06T10:10:39.560Z,929.48
2018-03-06T10:11:39.544Z,929.45
2018-03-06T10:12:39.530Z,929.45
2018-03-06T10:13:39.515Z,929.44
2018-03-06T10:14:39.500Z,929.4
2018-03-06T10:15:39.485Z,929.41
2018-03-06T10:16:39.471Z,929.42
2018-03-06T10:17:39.458Z,929.4
2018-03-06T10:18:39.440Z,929.41
2018-03-06T10:19:39.426Z,929.38
2018-03-06T10:20:39.412Z,929.36
2018-03-06T10:21:39.397Z,929.36
2018-03-06T10:22:39.386Z,929.37
2018-03-06T10:23:39.368Z,929.31
2018-03-06T10:24:39.357Z,929.33
2018-03-06T10:25:39.338Z,929.34
2018-03-06T10:26:39.322Z,929.37
2018-03-06T10:27:39.309Z,929.31
2018-03-06T10:28:39.295Z,929.28
2018-03-06T10:29:39.279Z,929.3
2018-03-06T10:30:39.264Z,929.3
2018-03-06T10:31:39.251Z,929.28
2018-03-06T10:32:39.236Z,929.32
2018-03-06T10:33:39.221Z,929.34
2018-03-06T10:34:39.206Z,929.33
2018-03-06T10:35:39.192Z,929.32
2018-03-06T10:36:39.178Z,929.28
2018-03-06T10:37:39.162Z,929.29
2018-03-06T10:38:39.148Z,929.31
2018-03-06T10:39:39.133Z,929.34
2018-03-06T10:40:39.117Z,929.3
2018-03-06T10:41:39.103Z,929.24
2018-03-06T10:42:39.089Z,929.26
2018-03-06T10:43:39.075Z,929.24
2018-03-06T10:44:39.059Z,929.25
2018-03-06T10:45:39.045Z,929.24
2018-03-06T10:46:39.030Z,929.24
2018-03-06T10:47:39.016Z,929.19
2018-03-06T10:48:39.000Z,929.21
2018-03-06T10:49:39.013Z,929.27
2018-03-06T10:50:38.972Z,929.18
2018-03-06T10:51:38.956Z,929.19
2018-03-06T10:52:38.942Z,929.19
2018-03-06T10:53:38.928Z,929.21
2018-03-06T10:54:38.913Z,929.2
2018-03-06T10:55:38.898Z,929.17
2018-03-06T10:56:38.885Z,929.15
2018-03-06T10:57:38.872Z,929.18
2018-03-06T10:58:38.855Z,929.15
2018-03-06T10:59:38.841Z,929.12
2018-03-06T11:00:38.826Z,929.16
2018-03-06T11:01:38.813Z,929.14
2018-03-06T11:02:38.797Z,929.11
2018-03-06T11:03:38.783Z,929.11
2018-03-06T11:04:38.769Z,929.11
2018-03-06T11:05:38.754Z,929.09
2018-03-06T11:06:38.739Z,929.13
2018-03-06T11:07:38.726Z,929.11
2018-03-06T11:08:38.710Z,929.09
2018-03-06T11:09:38.693Z,929.09
2018-03-06T11:10:38.679Z,929.09
2018-03-06T11:11:38.664Z,929.08
2018-03-06T11:12:38.651Z,929.03
2018-03-06T11:13:38.636Z,929.04
2018-03-06T11:14:38.621Z,929.06
2018-03-06T11:15:38.607Z,929.02
2018-03-06T11:16:38.593Z,929
2018-03-06T11:17:38.577Z,929.04
2018-03-06T11:18:38.562Z,929
2018-03-06T11:19:38.552Z,928.93
2018-03-06T11:20:38.533Z,928.97
2018-03-06T11:21:38.518Z,928.96
2018-03-06T11:22:38.510Z,928.94
2018-03-06T11:23:38.497Z,928.93
2018-03-06T11:24:38.478Z,928.93
2018-03-06T11:25:38.461Z,928.96
2018-03-06T11:26:38.447Z,928.89
2018-03-06T11:27:38.434Z,928.87
2018-03-06T11:28:38.418Z,928.87
2018-03-06T11:29:38.404Z,928.89
2018-03-06T11:30:38.391Z,928.81
2018-03-06T11:31:38.375Z,928.82
2018-03-06T11:32:38.361Z,928.75
2018-03-06T11:33:38.346Z,928.8
2018-03-06T11:34:38.332Z,928.79
2018-03-06T11:35:38.318Z,928.78
2018-03-06T11:36:38.303Z,928.76
2018-03-06T11:37:38.290Z,928.78
2018-03-06T11:38:38.274Z,928.76
2018-03-06T11:39:38.260Z,928.72
2018-03-06T11:40:38.248Z,928.71
2018-03-06T11:41:38.231Z,928.71
2018-03-06T11:42:38.215Z,928.78
2018-03-06T11:43:38.203Z,928.75
2018-03-06T11:44:38.192Z,928.79
2018-03-06T11:45:38.174Z,928.75
2018-03-06T11:46:38.160Z,928.77
2018-03-06T11:47:38.145Z,928.77
2018-03-06T11:48:38.129Z,928.77
2018-03-06T11:49:38.116Z,928.71
2018-03-06T11:50:38.101Z,928.75
2018-03-06T11:51:38.086Z,928.74
2018-03-06T11:52:38.072Z,928.72
2018-03-06T11:53:38.058Z,928.72
2018-03-06T11:54:38.043Z,928.67
2018-03-06T11:55:38.028Z,928.56
2018-03-06T11:56:38.015Z,928.63
2018-03-06T11:57:38.007Z,928.59
2018-03-06T11:58:37.988Z,928.56
2018-03-06T11:59:37.971Z,928.58
2018-03-06T12:00:37.957Z,928.6
2018-03-06T12:01:37.942Z,928.61
2018-03-06T12:02:37.932Z,928.62
2018-03-06T12:03:37.913Z,928.6
2018-03-06T12:04:37.898Z,928.6
2018-03-06T12:05:37.884Z,928.6
2018-03-06T12:06:37.872Z,928.58
2018-03-06T12:07:37.857Z,928.56
2018-03-06T12:08:37.841Z,928.57
2018-03-06T12:09:37.826Z,928.54
2018-03-06T12:10:37.817Z,928.55
2018-03-06T12:11:37.798Z,928.55
2018-03-06T12:12:37.783Z,928.55
2018-03-06T12:13:37.768Z,928.54
2018-03-06T12:14:37.756Z,928.55
2018-03-06T12:15:37.740Z,928.53
2018-03-06T12:16:37.726Z,928.52
2018-03-06T12:17:37.711Z,928.58
2018-03-06T12:18:37.709Z,928.57
2018-03-06T12:19:37.681Z,928.61
2018-03-06T12:20:37.668Z,928.59
2018-03-06T12:21:37.653Z,928.57
2018-03-06T12:22:37.639Z,928.62
2018-03-06T12:23:37.627Z,928.59
2018-03-06T12:24:37.609Z,928.57
2018-03-06T12:25:37.596Z,928.57
2018-03-06T12:26:37.580Z,928.6
2018-03-06T12:27:37.565Z,928.55
2018-03-06T12:28:37.551Z,928.57
2018-03-06T12:29:37.536Z,928.58
2018-03-06T12:30:37.521Z,928.53
2018-03-06T12:31:37.507Z,928.54